Tobias Bolanos International Airport
MRPV : now visible

Airfield :











YOU CAN JOIN US ON...

 
LOGIN :

Register | Disclaimer

   EN    FR    IT 

 









Legend :    VFR   Marginal VFR   IFR   Intensive IFR   Very Intensive IFR
Visi :
Ceiling :
>= 8 km
>= 3000ft
5 to 8 km
1000 to 3000 ft
1500m to 5 km
500 to 1000 ft
800 to 1500m
200 to 500 ft
< 800m
< 200 ft
Symbols :   Thunderstorms  Fog  Heavy snow  Heavy precipitations  Wind > 20 kt






- Airport Elevation : 3287 ft
- IATA code : SYQ


MRPV - Tobias Bolanos International

CURRENT METAR :
  • 051900Z 09014KT 9999 -RA FEW025 BKN070 23/16 A3003 NOSIG

EXPIRED METARs :
  • 051800Z 08013KT 9999 -RA SCT030 BKN060 23/17 A3005 NOSIG
  • 051700Z 07014G24KT 9999 SCT035 SCT120 24/17 A3007 NOSIG

TAF MRPV
Valid from the 05 at 18:00 until the 06 at 18:00 UTC


051700Z 0518/0618 10014KT 9999 FEW035 TX25/0518Z TN18/0610Z



MET'MAP, your aeronautical weather chart ! - Copyright ORBIFLY December 2007 - Disclaimer

ORBIFLY MET'MAP TEAM :

Programming & Development : Alexandra Zaïnal
Concept & original design : Baudouin d'Aumeries
Assistance for programming : Marc-Olivier Méhu
Technical & hardware support : Manuel Goepfert

Contact : metmap@orbifly.com




SOURCES & CREDITS :

   NOAA       Earth
Advisory